Mountain Lake, Minnesota
Current Conditions -  °F | °C
As of 3:14 AM on Saturday 27 Dec 2014 (Local Time) from KMWM Reporting Station
Light Snow Light Snow  
Wind Chill: -13°   Ceiling: 1300
Heat Index: -5°   Visibility: 1.5mi
Dew Point: -6°   Wind: 17mph
Humidity: 93%   Direction: 320°NW
Pressure: 30.04"   Gusts: 22mph
Location:  43.94°N, 94.93°W
Report Text: KMWM 270914Z AUTO 32015G19KT 1 1/2SM -SN SCT006 OVC013 M05/M06 A3004 RMK AO2
Loading
Personal Weather Stations






























Interactive Weather Map New forecast layout! Learn more

10-Day Weather Forecast

Advertisements
Track Severe Weather on mobile